Time;durP1;ratioP1;P1;durP2;ratioP2;P2;SDS_P1;SDS_P2;PMS_P1;PMS_P2;Temp;Humidity;BMP_temperature;BMP_pressure;BME280_temperature;BME280_humidity;BME280_pressure;Samples;Min_cycle;Max_cycle;Signal;HPM_P1;HPM_P2
2023/02/26 00:00:47;;;;;;;;;;;;;;;0.30;77.68;100064.81;105038;1291;71476;-78
2023/02/26 00:03:34;;;;;;;;;;;;;;;0.28;77.72;100071.05;104879;1290;73048;-77
2023/02/26 00:06:20;;;;;;;;;;;;;;;0.26;77.62;100072.20;105048;1293;61965;-78
2023/02/26 00:09:07;;;;;;;;;;;;;;;0.24;77.75;100074.39;104840;1290;61664;-78
2023/02/26 00:11:53;;;;;;;;;;;;;;;0.23;77.75;100080.64;104953;1289;75208;-77
2023/02/26 00:14:39;;;;;;;;;;;;;;;0.25;77.78;100088.63;104898;1290;68178;-77
2023/02/26 00:17:32;;;;;;;;;;;;;;;0.28;77.82;100093.76;104998;1289;72668;-78
2023/02/26 00:20:19;;;;;;;;;;;;;;;0.30;77.82;100098.73;105034;1288;60910;-78
2023/02/26 00:23:05;;;;;;;;;;;;;;;0.32;77.80;100099.27;104912;1293;61891;-78
2023/02/26 00:25:51;;;;;;;;;;;;;;;0.33;77.77;100105.89;104903;1288;76828;-78
2023/02/26 00:28:38;;;;;;;;;;;;;;;0.36;77.76;100107.95;105114;1290;73223;-78
2023/02/26 00:31:24;;;;;;;;;;;;;;;0.36;77.78;100108.83;104920;1289;71422;-78
2023/02/26 00:34:11;;;;;;;;;;;;;;;0.39;77.87;100109.72;104959;1290;62110;-77
2023/02/26 00:37:16;;;;;;;;;;;;;;;0.43;77.82;100113.36;104895;1289;62019;-77
2023/02/26 00:40:35;;;;;;;;;;;;;;;0.44;77.79;100112.50;105039;1290;74133;-78
2023/02/26 00:43:23;;;;;;;;;;;;;;;0.41;77.71;100114.34;104415;1296;68591;-78
2023/02/26 00:46:09;;;;;;;;;;;;;;;0.37;77.63;100112.05;104456;1297;71433;-78
2023/02/26 00:49:01;;;;;;;;;;;;;;;0.33;77.65;100120.80;104424;1299;60923;-78
2023/02/26 00:51:54;;;;;;;;;;;;;;;0.28;77.70;100121.57;104492;1300;60309;-78
2023/02/26 00:54:40;;;;;;;;;;;;;;;0.24;77.71;100116.91;104421;1296;74344;-78
2023/02/26 00:57:27;;;;;;;;;;;;;;;0.20;77.72;100123.63;104515;1296;67505;-77
2023/02/26 01:00:13;;;;;;;;;;;;;;;0.17;77.73;100122.89;104476;1295;71243;-77
2023/02/26 01:02:59;;;;;;;;;;;;;;;0.14;77.75;100124.20;105487;1296;59812;-77
2023/02/26 01:05:46;;;;;;;;;;;;;;;0.11;77.68;100128.54;105440;1296;60045;-79
2023/02/26 01:08:32;;;;;;;;;;;;;;;0.09;77.76;100131.71;104868;1296;74226;-78
2023/02/26 01:11:18;;;;;;;;;;;;;;;0.06;77.71;100132.17;104402;1296;68202;-78
2023/02/26 01:14:04;;;;;;;;;;;;;;;0.03;77.67;100135.00;104443;1296;71346;-78
2023/02/26 01:17:09;;;;;;;;;;;;;;;0.01;77.65;100138.35;104416;1296;61916;-78
2023/02/26 01:20:09;;;;;;;;;;;;;;;-0.03;77.70;100153.05;104911;1290;60061;-78
2023/02/26 01:23:00;;;;;;;;;;;;;;;-0.03;77.76;100156.77;105045;1290;74097;-78
2023/02/26 01:25:49;;;;;;;;;;;;;;;-0.06;77.80;100161.11;105078;1290;66287;-78
2023/02/26 01:28:35;;;;;;;;;;;;;;;-0.07;77.72;100169.06;105018;1289;73248;-78
2023/02/26 01:31:44;;;;;;;;;;;;;;;-0.10;77.71;100170.52;105001;1291;62079;-78
2023/02/26 01:34:38;;;;;;;;;;;;;;;-0.12;77.76;100171.85;105058;1290;63433;-78
2023/02/26 01:37:40;;;;;;;;;;;;;;;-0.15;77.75;100175.35;104918;1289;76368;-78
2023/02/26 01:40:55;;;;;;;;;;;;;;;-0.19;77.77;100176.10;105007;1289;69108;-77
2023/02/26 01:43:56;;;;;;;;;;;;;;;-0.22;77.71;100179.76;104487;1297;72018;-77
2023/02/26 01:47:01;;;;;;;;;;;;;;;-0.25;77.72;100180.55;105446;1296;60629;-77
2023/02/26 01:49:47;;;;;;;;;;;;;;;-0.28;77.81;100184.73;105486;1295;59953;-77
2023/02/26 01:52:33;;;;;;;;;;;;;;;-0.26;77.78;100190.52;105532;1295;74227;-78
2023/02/26 01:55:20;;;;;;;;;;;;;;;-0.25;77.80;100199.88;105548;1295;68572;-77
2023/02/26 01:58:06;;;;;;;;;;;;;;;-0.24;77.75;100197.51;105429;1296;71962;-77
2023/02/26 02:00:52;;;;;;;;;;;;;;;-0.25;77.71;100199.86;105411;1300;59985;-78
2023/02/26 02:03:40;;;;;;;;;;;;;;;-0.27;77.73;100201.84;105581;1296;60158;-79
2023/02/26 02:06:27;;;;;;;;;;;;;;;-0.27;77.74;100203.70;105399;1296;74266;-78
2023/02/26 02:09:13;;;;;;;;;;;;;;;-0.28;77.76;100208.10;105455;1295;67420;-78
2023/02/26 02:12:11;;;;;;;;;;;;;;;-0.30;77.72;100213.64;105464;1296;71458;-78
2023/02/26 02:15:15;;;;;;;;;;;;;;;-0.31;77.76;100211.59;105509;1295;59886;-78
2023/02/26 02:18:02;;;;;;;;;;;;;;;-0.33;77.73;100213.58;105537;1295;60365;-78
2023/02/26 02:20:56;;;;;;;;;;;;;;;-0.31;77.77;100214.30;105869;1290;75690;-78
2023/02/26 02:24:06;;;;;;;;;;;;;;;-0.33;77.75;100222.23;105969;1289;69255;-78
2023/02/26 02:27:05;;;;;;;;;;;;;;;-0.33;77.78;100228.66;105988;1289;73014;-78
2023/02/26 02:30:15;;;;;;;;;;;;;;;-0.34;77.76;100238.63;106019;1289;59795;-78
2023/02/26 02:33:11;;;;;;;;;;;;;;;-0.35;77.80;100239.63;106020;1290;59841;-78
2023/02/26 02:36:03;;;;;;;;;;;;;;;-0.37;77.75;100246.02;104849;1290;74558;-77
2023/02/26 02:38:59;;;;;;;;;;;;;;;-0.39;77.78;100246.47;104855;1291;67214;-77
2023/02/26 02:41:51;;;;;;;;;;;;;;;-0.40;77.77;100256.44;104931;1289;71530;-77
2023/02/26 02:44:39;;;;;;;;;;;;;;;-0.43;77.84;100255.02;104824;1290;61994;-77
2023/02/26 02:47:27;;;;;;;;;;;;;;;-0.45;77.88;100262.59;105034;1290;61241;-77
2023/02/26 02:50:26;;;;;;;;;;;;;;;-0.48;77.78;100261.67;104839;1291;74628;-77
2023/02/26 02:53:16;;;;;;;;;;;;;;;-0.50;77.89;100267.71;104675;1291;312278;-78
2023/02/26 02:56:07;;;;;;;;;;;;;;;-0.52;77.97;100271.41;105000;1289;73896;-77
2023/02/26 02:58:57;;;;;;;;;;;;;;;-0.52;77.86;100275.48;105040;1293;62090;-77
2023/02/26 03:01:44;;;;;;;;;;;;;;;-0.53;77.95;100274.62;105011;1290;61941;-77
2023/02/26 03:04:30;;;;;;;;;;;;;;;-0.54;77.95;100279.50;104956;1289;74110;-77
2023/02/26 03:07:16;;;;;;;;;;;;;;;-0.56;77.93;100284.88;105047;1290;71431;-77
2023/02/26 03:10:02;;;;;;;;;;;;;;;-0.56;77.93;100287.25;105046;1289;71100;-77
2023/02/26 03:12:48;;;;;;;;;;;;;;;-0.58;77.99;100293.47;105030;1290;61968;-77
2023/02/26 03:15:37;;;;;;;;;;;;;;;-0.59;77.98;100290.56;105051;1290;62100;-78
2023/02/26 03:18:39;;;;;;;;;;;;;;;-0.60;77.97;100299.50;105036;1289;74723;-77
2023/02/26 03:21:25;;;;;;;;;;;;;;;-0.61;77.97;100309.13;105036;1292;68568;-77
2023/02/26 03:24:18;;;;;;;;;;;;;;;-0.61;78.00;100314.38;105102;1291;71275;-77
2023/02/26 03:27:10;;;;;;;;;;;;;;;-0.62;78.03;100319.95;105035;1290;60051;-77
2023/02/26 03:30:02;;;;;;;;;;;;;;;-0.63;77.98;100328.71;105090;1290;62370;-78
2023/02/26 03:32:49;;;;;;;;;;;;;;;-0.64;77.98;100331.73;105019;1290;74104;-76
2023/02/26 03:35:58;;;;;;;;;;;;;;;-0.65;77.97;100344.58;105039;1290;69097;-77
2023/02/26 03:38:54;;;;;;;;;;;;;;;-0.65;77.99;100347.29;104498;1296;71271;-77
2023/02/26 03:42:00;;;;;;;;;;;;;;;-0.62;78.06;100353.95;104481;1296;61953;-77
2023/02/26 03:44:49;;;;;;;;;;;;;;;-0.60;78.06;100352.16;104143;1300;62679;-78
2023/02/26 03:47:38;;;;;;;;;;;;;;;-0.58;78.05;100359.30;104086;1302;74886;-78
2023/02/26 03:50:31;;;;;;;;;;;;;;;-0.56;78.07;100362.58;104061;1303;68934;-77
2023/02/26 03:53:21;;;;;;;;;;;;;;;-0.56;78.04;100366.14;104162;1302;71376;-77
2023/02/26 03:56:28;;;;;;;;;;;;;;;-0.55;78.08;100369.38;104092;1305;64781;-77
2023/02/26 03:59:15;;;;;;;;;;;;;;;-0.55;78.04;100373.95;103707;1306;61876;-77
2023/02/26 04:02:21;;;;;;;;;;;;;;;-0.55;77.99;100383.27;103629;1308;75567;-78
2023/02/26 04:05:13;;;;;;;;;;;;;;;-0.57;78.03;100382.02;102986;1313;68802;-78
2023/02/26 04:08:00;;;;;;;;;;;;;;;-0.58;78.04;100388.27;102970;1314;73284;-77
2023/02/26 04:10:54;;;;;;;;;;;;;;;-0.59;78.02;100388.58;103003;1312;62131;-77
2023/02/26 04:13:40;;;;;;;;;;;;;;;-0.59;78.10;100393.30;102935;1312;61222;-77
2023/02/26 04:16:26;;;;;;;;;;;;;;;-0.61;78.03;100395.48;103074;1310;74119;-77
2023/02/26 04:19:13;;;;;;;;;;;;;;;-0.60;78.05;100399.40;103352;1311;66351;-77
2023/02/26 04:21:59;;;;;;;;;;;;;;;-0.59;78.11;100400.91;103426;1305;71806;-77
2023/02/26 04:24:45;;;;;;;;;;;;;;;-0.60;78.07;100405.48;103921;1305;62625;-77
2023/02/26 04:27:31;;;;;;;;;;;;;;;-0.58;78.19;100413.14;103805;1303;61964;-77
2023/02/26 04:30:17;;;;;;;;;;;;;;;-0.55;78.15;100415.08;103972;1302;74052;-77
2023/02/26 04:33:03;;;;;;;;;;;;;;;-0.53;78.17;100418.69;103884;1305;66683;-76
2023/02/26 04:35:50;;;;;;;;;;;;;;;-0.49;78.11;100422.50;103985;1298;72664;-77
2023/02/26 04:38:37;;;;;;;;;;;;;;;-0.45;78.10;100425.80;104234;1299;62030;-77
2023/02/26 04:41:23;;;;;;;;;;;;;;;-0.42;78.17;100427.93;104317;1299;61958;-77
2023/02/26 04:44:09;;;;;;;;;;;;;;;-0.37;78.17;100433.98;105055;1291;75200;-77
2023/02/26 04:46:55;;;;;;;;;;;;;;;-0.34;78.19;100436.25;105080;1293;67443;-77
2023/02/26 04:49:42;;;;;;;;;;;;;;;-0.30;78.19;100440.58;104972;1291;71797;-77
2023/02/26 04:52:28;;;;;;;;;;;;;;;-0.27;78.18;100447.79;105040;1289;61985;-77
2023/02/26 04:55:14;;;;;;;;;;;;;;;-0.23;78.14;100447.02;105070;1290;62425;-78
2023/02/26 04:58:00;;;;;;;;;;;;;;;-0.20;78.08;100450.13;105083;1293;75024;-77
2023/02/26 05:00:47;;;;;;;;;;;;;;;-0.18;78.12;100450.70;105120;1290;67644;-77
2023/02/26 05:03:33;;;;;;;;;;;;;;;-0.15;78.12;100452.80;104947;1290;71307;-77
2023/02/26 05:06:20;;;;;;;;;;;;;;;-0.14;78.15;100452.84;104996;1293;61839;-78
2023/02/26 05:09:06;;;;;;;;;;;;;;;-0.12;78.14;100456.11;104973;1290;62672;-77
2023/02/26 05:11:52;;;;;;;;;;;;;;;-0.11;78.17;100463.60;105053;1290;74245;-77
2023/02/26 05:14:38;;;;;;;;;;;;;;;-0.09;78.16;100466.69;105118;1290;67397;-77
2023/02/26 05:17:24;;;;;;;;;;;;;;;-0.06;78.12;100471.49;105022;1289;72084;-77
2023/02/26 05:20:11;;;;;;;;;;;;;;;-0.04;78.10;100472.73;105097;1289;62041;-77
2023/02/26 05:22:57;;;;;;;;;;;;;;;-0.01;78.12;100474.67;104937;1290;62065;-77
2023/02/26 05:25:43;;;;;;;;;;;;;;;0.01;78.19;100479.27;104930;1290;74869;-77
2023/02/26 05:28:30;;;;;;;;;;;;;;;0.03;78.14;100477.78;104962;1290;70107;-77
2023/02/26 05:31:16;;;;;;;;;;;;;;;0.03;78.11;100482.36;105079;1291;72023;-77
2023/02/26 05:34:02;;;;;;;;;;;;;;;0.04;78.14;100486.63;104993;1289;60278;-77
2023/02/26 05:36:48;;;;;;;;;;;;;;;0.05;78.13;100497.50;104937;1291;60072;-77
2023/02/26 05:39:34;;;;;;;;;;;;;;;0.07;78.17;100496.52;105063;1289;73961;-78
2023/02/26 05:42:20;;;;;;;;;;;;;;;0.09;78.22;100506.75;105051;1290;68552;-77
2023/02/26 05:45:07;;;;;;;;;;;;;;;0.11;78.14;100510.02;104920;1290;71845;-77
2023/02/26 05:47:53;;;;;;;;;;;;;;;0.13;78.16;100511.25;105059;1290;64167;-77
2023/02/26 05:50:39;;;;;;;;;;;;;;;0.14;78.14;100518.06;105111;1291;60068;-77
2023/02/26 05:53:25;;;;;;;;;;;;;;;0.15;78.16;100524.69;105083;1289;75170;-77
2023/02/26 05:56:11;;;;;;;;;;;;;;;0.16;78.18;100534.20;105003;1289;68017;-77
2023/02/26 05:58:57;;;;;;;;;;;;;;;0.16;78.16;100534.39;105087;1289;73986;-77
2023/02/26 06:01:44;;;;;;;;;;;;;;;0.19;78.19;100538.86;105019;1289;62903;-77
2023/02/26 06:04:30;;;;;;;;;;;;;;;0.22;78.20;100543.67;105068;1289;60189;-77
2023/02/26 06:07:17;;;;;;;;;;;;;;;0.22;78.19;100550.30;105097;1289;73632;-77
2023/02/26 06:10:03;;;;;;;;;;;;;;;0.23;78.23;100555.58;104980;1293;67521;-77
2023/02/26 06:12:49;;;;;;;;;;;;;;;0.26;78.27;100561.09;104989;1290;70299;-77
2023/02/26 06:15:36;;;;;;;;;;;;;;;0.29;78.23;100567.92;105091;1291;62103;-77
2023/02/26 06:18:22;;;;;;;;;;;;;;;0.30;78.22;100576.27;104984;1289;62042;-77
2023/02/26 06:21:08;;;;;;;;;;;;;;;0.32;78.27;100581.06;105107;1290;73618;-77
2023/02/26 06:23:55;;;;;;;;;;;;;;;0.35;78.34;100592.66;105095;1290;67256;-77
2023/02/26 06:26:41;;;;;;;;;;;;;;;0.37;78.30;100592.02;105038;1293;73319;-77
2023/02/26 06:29:27;;;;;;;;;;;;;;;0.38;78.30;100598.33;104933;1290;62859;-77
2023/02/26 06:32:13;;;;;;;;;;;;;;;0.39;78.25;100597.34;105080;1289;60207;-77
2023/02/26 06:35:00;;;;;;;;;;;;;;;0.40;78.33;100606.17;105073;1290;74048;-76
2023/02/26 06:37:46;;;;;;;;;;;;;;;0.41;78.40;100611.63;105064;1290;67261;-76
2023/02/26 06:40:32;;;;;;;;;;;;;;;0.43;78.37;100618.12;104924;1291;73149;-76
2023/02/26 06:43:18;;;;;;;;;;;;;;;0.46;78.40;100623.62;105030;1289;61374;-76
2023/02/26 06:46:04;;;;;;;;;;;;;;;0.49;78.46;100626.59;105093;1293;62013;-77
2023/02/26 06:48:50;;;;;;;;;;;;;;;0.51;78.47;100629.85;101123;1290;5003222;-77
2023/02/26 06:51:36;;;;;;;;;;;;;;;0.55;78.47;100633.65;105005;1290;70691;-77
2023/02/26 06:54:23;;;;;;;;;;;;;;;0.57;78.47;100637.27;105081;1291;61972;-77
2023/02/26 06:57:09;;;;;;;;;;;;;;;0.59;78.42;100640.71;105171;1288;61968;-77
2023/02/26 06:59:55;;;;;;;;;;;;;;;0.60;78.37;100647.35;105180;1288;75325;-77
2023/02/26 07:02:41;;;;;;;;;;;;;;;0.61;78.40;100647.23;105086;1288;67429;-77
2023/02/26 07:05:28;;;;;;;;;;;;;;;0.66;78.43;100649.54;105056;1288;73033;-77
2023/02/26 07:08:14;;;;;;;;;;;;;;;0.72;78.43;100650.88;104981;1290;61868;-77
2023/02/26 07:11:01;;;;;;;;;;;;;;;0.78;78.38;100655.44;105141;1288;62610;-77
2023/02/26 07:13:47;;;;;;;;;;;;;;;0.82;78.31;100654.67;105021;1291;75205;-77
2023/02/26 07:16:33;;;;;;;;;;;;;;;0.85;78.29;100662.05;105087;1289;67532;-77
2023/02/26 07:19:19;;;;;;;;;;;;;;;0.92;78.39;100670.35;105230;1289;71275;-77
2023/02/26 07:22:05;;;;;;;;;;;;;;;0.99;78.41;100671.38;104945;1293;60088;-77
2023/02/26 07:24:51;;;;;;;;;;;;;;;1.06;78.30;100677.27;105017;1288;60499;-77
2023/02/26 07:27:37;;;;;;;;;;;;;;;1.13;78.20;100681.36;105174;1288;73898;-77
2023/02/26 07:30:23;;;;;;;;;;;;;;;1.16;78.08;100688.55;105151;1288;71450;-77
2023/02/26 07:33:10;;;;;;;;;;;;;;;1.19;78.09;100695.41;105111;1291;72318;-77
2023/02/26 07:35:56;;;;;;;;;;;;;;;1.18;78.05;100697.43;105143;1288;62112;-77
2023/02/26 07:38:42;;;;;;;;;;;;;;;1.16;78.06;100701.45;105017;1288;61380;-77
2023/02/26 07:41:28;;;;;;;;;;;;;;;1.15;78.06;100708.90;105117;1288;74861;-77
2023/02/26 07:44:15;;;;;;;;;;;;;;;1.14;78.07;100714.80;105184;1293;68034;-77
2023/02/26 07:47:01;;;;;;;;;;;;;;;1.12;78.03;100715.95;105008;1288;73047;-77
2023/02/26 07:49:47;;;;;;;;;;;;;;;1.12;78.10;100722.23;105029;1288;60836;-77
2023/02/26 07:52:33;;;;;;;;;;;;;;;1.09;78.05;100731.83;105117;1288;60215;-78
2023/02/26 07:55:20;;;;;;;;;;;;;;;1.12;78.15;100739.40;105212;1290;75683;-77
2023/02/26 07:58:07;;;;;;;;;;;;;;;1.23;78.12;100743.22;104965;1288;70451;-77
2023/02/26 08:00:53;;;;;;;;;;;;;;;1.27;77.98;100752.48;105108;1289;74357;-77
2023/02/26 08:03:39;;;;;;;;;;;;;;;1.28;78.04;100754.04;105015;1288;61873;-77
2023/02/26 08:06:25;;;;;;;;;;;;;;;1.32;78.15;100759.06;105033;1291;60375;-77
2023/02/26 08:09:11;;;;;;;;;;;;;;;1.37;78.05;100765.61;105220;1288;75244;-77
2023/02/26 08:11:58;;;;;;;;;;;;;;;1.40;78.13;100764.34;105042;1288;67516;-77
2023/02/26 08:14:44;;;;;;;;;;;;;;;1.50;78.02;100768.64;105038;1288;71032;-77
2023/02/26 08:17:31;;;;;;;;;;;;;;;1.55;78.00;100776.59;105031;1293;62145;-77
2023/02/26 08:20:18;;;;;;;;;;;;;;;1.62;77.93;100777.41;105136;1292;61899;-75
2023/02/26 08:23:04;;;;;;;;;;;;;;;1.79;78.03;100776.27;105011;1288;73035;-75
2023/02/26 08:25:50;;;;;;;;;;;;;;;1.97;78.04;100782.26;105024;1291;69400;-75
2023/02/26 08:28:36;;;;;;;;;;;;;;;2.24;78.03;100782.79;105090;1288;72094;-76
2023/02/26 08:31:22;;;;;;;;;;;;;;;2.52;77.85;100786.25;105174;1288;61910;-76
2023/02/26 08:34:08;;;;;;;;;;;;;;;2.65;77.66;100795.33;105131;1291;61981;-75
2023/02/26 08:36:55;;;;;;;;;;;;;;;2.66;77.77;100797.91;105138;1289;75227;-75
2023/02/26 08:39:41;;;;;;;;;;;;;;;2.68;77.62;100803.55;105217;1291;67807;-75
2023/02/26 08:42:27;;;;;;;;;;;;;;;2.71;77.75;100808.36;105121;1291;71384;-76
2023/02/26 08:45:13;;;;;;;;;;;;;;;2.72;77.71;100813.99;105102;1288;62149;-75
2023/02/26 08:47:59;;;;;;;;;;;;;;;2.71;77.85;100813.13;105173;1292;60327;-75
2023/02/26 08:50:45;;;;;;;;;;;;;;;2.72;77.93;100823.19;105166;1292;74720;-76
2023/02/26 08:53:31;;;;;;;;;;;;;;;2.74;77.95;100824.42;105086;1288;66927;-76
2023/02/26 08:56:17;;;;;;;;;;;;;;;2.76;77.90;100822.58;105124;1288;71239;-76
2023/02/26 08:59:04;;;;;;;;;;;;;;;2.74;77.98;100830.04;104931;1291;60357;-75
2023/02/26 09:01:50;;;;;;;;;;;;;;;2.68;77.88;100839.80;104973;1290;59765;-75
2023/02/26 09:04:36;;;;;;;;;;;;;;;2.68;77.90;100839.96;105052;1288;73949;-75
2023/02/26 09:07:22;;;;;;;;;;;;;;;2.71;77.88;100843.95;105030;1288;69602;-76
2023/02/26 09:10:09;;;;;;;;;;;;;;;2.76;77.44;100855.27;104999;1288;71853;-76
2023/02/26 09:12:55;;;;;;;;;;;;;;;2.76;77.32;100856.97;106092;1288;59661;-76
2023/02/26 09:15:40;;;;;;;;;;;;;;;2.77;77.29;100859.23;106147;1288;59923;-76
2023/02/26 09:18:26;;;;;;;;;;;;;;;2.84;77.41;100872.11;105135;1288;74222;-76
2023/02/26 09:21:13;;;;;;;;;;;;;;;2.91;77.46;100871.91;104952;1288;67334;-76
2023/02/26 09:23:59;;;;;;;;;;;;;;;3.04;77.42;100879.66;104945;1288;71294;-75
2023/02/26 09:26:45;;;;;;;;;;;;;;;3.12;77.17;100881.66;105124;1293;61931;-75
2023/02/26 09:29:31;;;;;;;;;;;;;;;3.10;77.29;100883.52;105136;1292;60402;-75
2023/02/26 09:32:17;;;;;;;;;;;;;;;3.08;77.06;100892.00;105121;1288;74605;-75
2023/02/26 09:35:04;;;;;;;;;;;;;;;3.08;76.90;100894.37;105127;1288;67433;-76
2023/02/26 09:37:50;;;;;;;;;;;;;;;3.02;77.06;100903.80;104952;1288;71401;-76
2023/02/26 09:40:48;;;;;;;;;;;;;;;2.96;77.03;100908.63;105031;1288;62151;-76
2023/02/26 09:44:07;;;;;;;;;;;;;;;2.90;76.75;100917.52;105059;1288;61825;-76
2023/02/26 09:47:13;;;;;;;;;;;;;;;2.83;76.98;100920.45;104497;1297;74832;-77
2023/02/26 09:50:06;;;;;;;;;;;;;;;2.77;76.71;100927.65;103868;1302;67401;-76
2023/02/26 09:52:52;;;;;;;;;;;;;;;2.74;76.68;100932.84;103847;1302;75489;-76
2023/02/26 09:55:42;;;;;;;;;;;;;;;2.70;76.80;100936.52;103799;1302;60308;-76
2023/02/26 09:58:31;;;;;;;;;;;;;;;2.64;76.54;100940.64;103731;1302;61563;-76
2023/02/26 10:01:37;;;;;;;;;;;;;;;2.64;76.78;100943.72;103851;1302;75868;-76
2023/02/26 10:04:41;;;;;;;;;;;;;;;2.78;76.81;100949.11;103830;1302;69733;-76
2023/02/26 10:07:44;;;;;;;;;;;;;;;2.90;76.61;100956.52;103912;1303;72021;-77
2023/02/26 10:10:49;;;;;;;;;;;;;;;2.95;76.47;100959.52;104012;1303;61986;-77
2023/02/26 10:13:44;;;;;;;;;;;;;;;3.00;76.46;100966.77;103967;1301;60294;-76
2023/02/26 10:16:33;;;;;;;;;;;;;;;2.98;76.30;100969.46;103890;1302;74038;-74
2023/02/26 10:19:21;;;;;;;;;;;;;;;2.96;76.29;100972.13;103977;1302;71311;-75
2023/02/26 10:22:16;;;;;;;;;;;;;;;2.94;76.35;100977.02;104049;1296;72054;-72
2023/02/26 10:25:10;;;;;;;;;;;;;;;2.95;76.25;100976.21;104262;1296;62223;-75
2023/02/26 10:28:11;;;;;;;;;;;;;;;3.07;76.26;100975.93;104735;1291;61965;-74
2023/02/26 10:31:02;;;;;;;;;;;;;;;3.24;76.11;100978.30;104939;1290;74436;-74
2023/02/26 10:33:49;;;;;;;;;;;;;;;3.33;75.65;100983.23;104997;1293;67271;-74
2023/02/26 10:37:01;;;;;;;;;;;;;;;3.33;75.33;100987.33;104994;1290;71887;-76
2023/02/26 10:39:54;;;;;;;;;;;;;;;3.29;75.50;100993.90;104231;1297;61979;-76
2023/02/26 10:43:06;;;;;;;;;;;;;;;3.23;75.58;101002.46;104157;1299;61976;-76
2023/02/26 10:45:58;;;;;;;;;;;;;;;3.21;75.80;101002.42;104120;1303;75769;-77
2023/02/26 10:48:44;;;;;;;;;;;;;;;3.22;75.47;101008.56;104102;1302;68056;-75
2023/02/26 10:51:34;;;;;;;;;;;;;;;3.26;75.23;101015.47;104449;1302;71609;-76
2023/02/26 10:54:38;;;;;;;;;;;;;;;3.31;75.51;101016.09;104108;1305;60482;-76
2023/02/26 10:57:27;;;;;;;;;;;;;;;3.40;75.42;101018.80;104075;1304;62112;-78
2023/02/26 11:00:16;;;;;;;;;;;;;;;3.41;75.27;101024.30;103776;1301;74112;-81
2023/02/26 11:03:04;;;;;;;;;;;;;;;3.41;75.17;101030.27;104184;1303;68012;-82
2023/02/26 11:05:50;;;;;;;;;;;;;;;3.39;75.14;101033.80;104063;1300;73015;-82
2023/02/26 11:08:41;;;;;;;;;;;;;;;3.39;75.28;101033.78;104193;1302;60209;-82
2023/02/26 11:11:41;;;;;;;;;;;;;;;3.39;75.23;101035.00;103952;1302;62069;-83
2023/02/26 11:14:27;;;;;;;;;;;;;;;3.39;75.14;101034.13;103953;1303;74144;-82
2023/02/26 11:17:18;;;;;;;;;;;;;;;3.39;75.07;101040.62;104409;1294;67492;-82
2023/02/26 11:20:14;;;;;;;;;;;;;;;3.38;75.10;101037.17;104643;1294;74036;-83
2023/02/26 11:23:01;;;;;;;;;;;;;;;3.43;74.93;101041.88;104917;1291;61335;-82
2023/02/26 11:25:53;;;;;;;;;;;;;;;3.52;74.98;101043.44;105005;1289;62192;-83
2023/02/26 11:28:46;;;;;;;;;;;;;;;3.60;74.39;101046.84;105083;1290;75801;-83
2023/02/26 11:31:32;;;;;;;;;;;;;;;3.72;74.79;101048.55;105149;1290;68377;-82
2023/02/26 11:34:24;;;;;;;;;;;;;;;3.75;74.17;101051.67;104747;1292;73109;-82
2023/02/26 11:37:10;;;;;;;;;;;;;;;3.74;74.49;101053.36;105068;1291;61836;-82
2023/02/26 11:39:57;;;;;;;;;;;;;;;3.72;74.40;101057.58;105132;1289;60557;-82
2023/02/26 11:42:48;;;;;;;;;;;;;;;3.67;74.23;101061.92;104879;1290;75498;-82
2023/02/26 11:45:35;;;;;;;;;;;;;;;3.61;74.30;101065.77;104999;1291;67774;-83
2023/02/26 11:48:42;;;;;;;;;;;;;;;3.62;74.02;101070.23;105039;1291;72327;-82
2023/02/26 11:51:28;;;;;;;;;;;;;;;3.56;73.94;101079.46;104881;1290;62051;-82
2023/02/26 11:54:53;;;;;;;;;;;;;;;3.50;74.24;101082.09;104970;1289;61941;-82
2023/02/26 11:57:41;;;;;;;;;;;;;;;3.54;74.24;101085.38;104809;1294;74028;-82
2023/02/26 12:00:34;;;;;;;;;;;;;;;3.57;74.06;101088.69;104703;1293;70213;-82
2023/02/26 12:03:22;;;;;;;;;;;;;;;3.58;73.98;101091.27;104879;1293;70414;-82
2023/02/26 12:06:15;;;;;;;;;;;;;;;3.67;74.19;101092.11;104950;1292;60767;-82
2023/02/26 12:09:01;;;;;;;;;;;;;;;3.76;73.81;101092.45;104826;1294;60722;-82
2023/02/26 12:12:09;;;;;;;;;;;;;;;3.83;73.81;101094.11;104744;1292;75982;-83
2023/02/26 12:15:22;;;;;;;;;;;;;;;3.84;73.45;101087.65;104794;1294;68092;-82
2023/02/26 12:18:20;;;;;;;;;;;;;;;3.86;73.68;101091.27;104355;1302;72358;-82
2023/02/26 12:21:25;;;;;;;;;;;;;;;3.79;73.09;101096.60;104344;1300;62195;-82
2023/02/26 12:24:25;;;;;;;;;;;;;;;3.66;73.00;101100.79;104429;1299;62347;-82
2023/02/26 12:27:30;;;;;;;;;;;;;;;3.60;73.14;101103.93;104313;1299;74631;-82
2023/02/26 12:30:16;;;;;;;;;;;;;;;3.55;72.58;101108.60;104550;1296;67142;-82
2023/02/26 12:33:02;;;;;;;;;;;;;;;3.48;72.93;101106.58;104469;1296;71353;-82
2023/02/26 12:36:17;;;;;;;;;;;;;;;3.47;72.87;101113.20;104447;1296;59784;-82
2023/02/26 12:39:16;;;;;;;;;;;;;;;3.52;72.45;101121.15;103968;1302;60219;-82
2023/02/26 12:42:25;;;;;;;;;;;;;;;3.52;72.86;101119.29;103912;1303;74003;-82
2023/02/26 12:45:12;;;;;;;;;;;;;;;3.56;72.86;101121.08;103383;1310;69115;-82
2023/02/26 12:48:31;;;;;;;;;;;;;;;3.60;72.86;101122.84;103340;1310;72771;-82
2023/02/26 12:51:35;;;;;;;;;;;;;;;3.68;72.74;101131.33;103498;1310;62101;-82
2023/02/26 12:54:40;;;;;;;;;;;;;;;3.77;72.90;101126.05;103436;1305;61345;-83
2023/02/26 12:57:49;;;;;;;;;;;;;;;3.86;72.82;101134.77;103710;1305;75706;-83
2023/02/26 13:00:36;;;;;;;;;;;;;;;3.86;71.36;101138.52;103123;1311;67386;-83
2023/02/26 13:03:40;;;;;;;;;;;;;;;3.82;72.12;101142.35;103249;1310;72136;-82
2023/02/26 13:06:26;;;;;;;;;;;;;;;3.84;71.99;101147.17;103177;1310;61925;-83
2023/02/26 13:09:31;;;;;;;;;;;;;;;3.85;72.14;101153.69;103178;1310;62126;-83
2023/02/26 13:12:29;;;;;;;;;;;;;;;3.84;72.17;101158.79;103237;1311;77266;-82
2023/02/26 13:15:45;;;;;;;;;;;;;;;3.81;72.17;101162.80;103449;1305;68206;-82
2023/02/26 13:18:31;;;;;;;;;;;;;;;3.78;72.15;101164.79;103335;1311;71515;-83
2023/02/26 13:21:20;;;;;;;;;;;;;;;3.79;72.18;101167.52;103228;1310;61903;-83
2023/02/26 13:24:11;;;;;;;;;;;;;;;3.76;72.03;101171.40;103780;1305;60687;-83
2023/02/26 13:26:58;;;;;;;;;;;;;;;3.76;72.04;101170.21;103741;1304;74731;-83
2023/02/26 13:29:50;;;;;;;;;;;;;;;3.78;71.66;101173.48;103891;1305;67660;-82
2023/02/26 13:32:38;;;;;;;;;;;;;;;3.76;71.86;101178.04;103729;1304;73520;-83
2023/02/26 13:35:33;;;;;;;;;;;;;;;3.75;71.88;101180.24;103785;1305;61967;-82
2023/02/26 13:38:20;;;;;;;;;;;;;;;3.70;71.50;101182.86;104246;1301;61877;-78
2023/02/26 13:41:10;;;;;;;;;;;;;;;3.64;71.45;101186.49;104275;1296;74275;-81
2023/02/26 13:44:08;;;;;;;;;;;;;;;3.63;71.55;101187.69;104393;1296;67946;-81
2023/02/26 13:47:11;;;;;;;;;;;;;;;3.66;71.58;101195.40;104320;1297;71999;-81
2023/02/26 13:50:20;;;;;;;;;;;;;;;3.63;71.27;101198.41;104455;1298;60233;-82
2023/02/26 13:53:27;;;;;;;;;;;;;;;3.57;71.28;101201.38;103977;1305;62656;-83
2023/02/26 13:56:33;;;;;;;;;;;;;;;3.52;71.39;101203.98;104393;1296;75088;-82
2023/02/26 13:59:29;;;;;;;;;;;;;;;3.48;71.16;101207.83;104205;1305;68418;-81
2023/02/26 14:02:18;;;;;;;;;;;;;;;3.48;71.19;101205.25;103955;1302;71335;-82
2023/02/26 14:05:08;;;;;;;;;;;;;;;3.48;71.12;101208.66;104114;1302;62185;-82
2023/02/26 14:08:18;;;;;;;;;;;;;;;3.51;71.05;101212.84;104030;1305;61983;-83
2023/02/26 14:11:23;;;;;;;;;;;;;;;3.55;70.98;101209.16;103252;1310;74141;-82
2023/02/26 14:14:11;;;;;;;;;;;;;;;3.54;70.98;101208.46;103357;1312;68068;-83
2023/02/26 14:17:09;;;;;;;;;;;;;;;3.55;70.88;101214.27;103158;1313;71498;-82
2023/02/26 14:19:55;;;;;;;;;;;;;;;3.54;70.73;101211.17;103246;1313;62212;-82
2023/02/26 14:22:42;;;;;;;;;;;;;;;3.55;70.76;101212.92;103304;1311;60304;-77
2023/02/26 14:25:33;;;;;;;;;;;;;;;3.54;70.71;101212.72;103061;1315;74140;-77
2023/02/26 14:28:23;;;;;;;;;;;;;;;3.52;70.56;101213.86;103142;1317;68705;-79
2023/02/26 14:31:10;;;;;;;;;;;;;;;3.49;70.60;101217.05;103595;1305;71248;-77
2023/02/26 14:34:26;;;;;;;;;;;;;;;3.47;70.38;101218.53;103706;1310;60489;-77